sensor_id;sensor_type;location;lat;lon;timestamp;P1;durP1;ratioP1;P2;durP2;ratioP2
3995;SDS011;2012;49.794;9.722;2023-09-18T00:00:24;5.60;;;3.83;;
3995;SDS011;2012;49.794;9.722;2023-09-18T00:02:51;6.73;;;3.73;;
3995;SDS011;2012;49.794;9.722;2023-09-18T00:05:18;5.23;;;3.77;;
3995;SDS011;2012;49.794;9.722;2023-09-18T00:07:45;4.70;;;4.23;;
3995;SDS011;2012;49.794;9.722;2023-09-18T00:10:12;4.83;;;4.30;;
3995;SDS011;2012;49.794;9.722;2023-09-18T00:12:40;4.93;;;4.10;;
3995;SDS011;2012;49.794;9.722;2023-09-18T00:15:07;3.83;;;3.43;;
3995;SDS011;2012;49.794;9.722;2023-09-18T00:17:37;4.93;;;4.33;;
3995;SDS011;2012;49.794;9.722;2023-09-18T00:20:04;7.77;;;3.93;;
3995;SDS011;2012;49.794;9.722;2023-09-18T00:22:33;5.07;;;4.47;;
3995;SDS011;2012;49.794;9.722;2023-09-18T00:25:00;8.23;;;4.80;;
3995;SDS011;2012;49.794;9.722;2023-09-18T00:27:30;7.10;;;4.30;;
3995;SDS011;2012;49.794;9.722;2023-09-18T00:29:58;7.23;;;4.70;;
3995;SDS011;2012;49.794;9.722;2023-09-18T00:32:25;10.33;;;4.03;;
3995;SDS011;2012;49.794;9.722;2023-09-18T00:34:53;5.40;;;4.43;;
3995;SDS011;2012;49.794;9.722;2023-09-18T00:37:20;5.30;;;4.23;;
3995;SDS011;2012;49.794;9.722;2023-09-18T00:39:47;5.53;;;4.70;;
3995;SDS011;2012;49.794;9.722;2023-09-18T00:42:17;5.80;;;4.37;;
3995;SDS011;2012;49.794;9.722;2023-09-18T00:44:44;4.17;;;3.77;;
3995;SDS011;2012;49.794;9.722;2023-09-18T00:47:11;4.37;;;3.97;;
3995;SDS011;2012;49.794;9.722;2023-09-18T00:49:40;4.93;;;4.10;;
3995;SDS011;2012;49.794;9.722;2023-09-18T00:52:10;5.23;;;4.53;;
3995;SDS011;2012;49.794;9.722;2023-09-18T00:54:37;10.63;;;4.10;;
3995;SDS011;2012;49.794;9.722;2023-09-18T00:57:06;4.43;;;4.03;;
3995;SDS011;2012;49.794;9.722;2023-09-18T00:59:36;15.57;;;4.83;;
3995;SDS011;2012;49.794;9.722;2023-09-18T01:02:03;6.83;;;4.57;;
3995;SDS011;2012;49.794;9.722;2023-09-18T01:04:33;6.90;;;4.60;;
3995;SDS011;2012;49.794;9.722;2023-09-18T01:07:00;7.17;;;5.03;;
3995;SDS011;2012;49.794;9.722;2023-09-18T01:09:30;5.90;;;4.23;;
3995;SDS011;2012;49.794;9.722;2023-09-18T01:12:01;9.73;;;4.40;;
3995;SDS011;2012;49.794;9.722;2023-09-18T01:17:15;8.80;;;4.70;;
3995;SDS011;2012;49.794;9.722;2023-09-18T01:19:43;6.30;;;4.43;;
3995;SDS011;2012;49.794;9.722;2023-09-18T01:22:13;5.13;;;4.67;;
3995;SDS011;2012;49.794;9.722;2023-09-18T01:24:41;4.63;;;4.23;;
3995;SDS011;2012;49.794;9.722;2023-09-18T01:27:09;4.40;;;4.00;;
3995;SDS011;2012;49.794;9.722;2023-09-18T01:29:39;5.90;;;4.83;;
3995;SDS011;2012;49.794;9.722;2023-09-18T01:32:06;6.90;;;4.70;;
3995;SDS011;2012;49.794;9.722;2023-09-18T01:34:33;5.80;;;4.93;;
3995;SDS011;2012;49.794;9.722;2023-09-18T01:37:09;9.30;;;5.00;;
3995;SDS011;2012;49.794;9.722;2023-09-18T01:39:38;6.00;;;5.20;;
3995;SDS011;2012;49.794;9.722;2023-09-18T01:42:06;9.27;;;4.50;;
3995;SDS011;2012;49.794;9.722;2023-09-18T01:44:36;5.00;;;4.53;;
3995;SDS011;2012;49.794;9.722;2023-09-18T01:47:07;5.80;;;5.20;;
3995;SDS011;2012;49.794;9.722;2023-09-18T01:49:39;5.40;;;4.80;;
3995;SDS011;2012;49.794;9.722;2023-09-18T01:52:07;6.47;;;5.10;;
3995;SDS011;2012;49.794;9.722;2023-09-18T01:54:35;4.77;;;4.37;;
3995;SDS011;2012;49.794;9.722;2023-09-18T01:57:02;9.97;;;4.33;;
3995;SDS011;2012;49.794;9.722;2023-09-18T01:59:30;5.20;;;4.70;;
3995;SDS011;2012;49.794;9.722;2023-09-18T02:01:58;7.13;;;5.03;;
3995;SDS011;2012;49.794;9.722;2023-09-18T02:04:25;5.77;;;4.83;;
3995;SDS011;2012;49.794;9.722;2023-09-18T02:07:13;5.90;;;4.67;;
3995;SDS011;2012;49.794;9.722;2023-09-18T02:09:41;6.50;;;5.00;;
3995;SDS011;2012;49.794;9.722;2023-09-18T02:12:07;8.73;;;4.83;;
3995;SDS011;2012;49.794;9.722;2023-09-18T02:14:34;15.83;;;5.00;;
3995;SDS011;2012;49.794;9.722;2023-09-18T02:17:01;5.90;;;4.93;;
3995;SDS011;2012;49.794;9.722;2023-09-18T02:19:29;6.80;;;3.97;;
3995;SDS011;2012;49.794;9.722;2023-09-18T02:21:56;6.80;;;4.80;;
3995;SDS011;2012;49.794;9.722;2023-09-18T02:24:24;11.70;;;4.63;;
3995;SDS011;2012;49.794;9.722;2023-09-18T02:26:53;11.73;;;4.77;;
3995;SDS011;2012;49.794;9.722;2023-09-18T02:29:20;5.67;;;4.87;;
3995;SDS011;2012;49.794;9.722;2023-09-18T02:31:47;8.77;;;5.00;;
3995;SDS011;2012;49.794;9.722;2023-09-18T02:34:14;7.00;;;4.90;;
3995;SDS011;2012;49.794;9.722;2023-09-18T02:36:41;9.07;;;4.90;;
3995;SDS011;2012;49.794;9.722;2023-09-18T02:39:08;7.23;;;5.00;;
3995;SDS011;2012;49.794;9.722;2023-09-18T02:41:35;5.93;;;5.33;;
3995;SDS011;2012;49.794;9.722;2023-09-18T02:44:01;5.93;;;4.70;;
3995;SDS011;2012;49.794;9.722;2023-09-18T02:46:29;5.60;;;4.77;;
3995;SDS011;2012;49.794;9.722;2023-09-18T02:48:56;4.70;;;4.30;;
3995;SDS011;2012;49.794;9.722;2023-09-18T02:51:23;6.10;;;4.97;;
3995;SDS011;2012;49.794;9.722;2023-09-18T02:53:50;5.50;;;4.80;;
3995;SDS011;2012;49.794;9.722;2023-09-18T02:56:17;5.47;;;4.90;;
3995;SDS011;2012;49.794;9.722;2023-09-18T02:58:44;6.03;;;5.43;;
3995;SDS011;2012;49.794;9.722;2023-09-18T03:01:12;6.00;;;5.13;;
3995;SDS011;2012;49.794;9.722;2023-09-18T03:03:38;5.83;;;5.20;;
3995;SDS011;2012;49.794;9.722;2023-09-18T03:06:08;9.07;;;6.90;;
3995;SDS011;2012;49.794;9.722;2023-09-18T03:08:36;11.83;;;6.50;;
3995;SDS011;2012;49.794;9.722;2023-09-18T03:11:10;8.20;;;6.80;;
3995;SDS011;2012;49.794;9.722;2023-09-18T03:13:42;13.77;;;6.73;;
3995;SDS011;2012;49.794;9.722;2023-09-18T03:16:15;11.40;;;6.70;;
3995;SDS011;2012;49.794;9.722;2023-09-18T03:18:43;9.27;;;6.40;;
3995;SDS011;2012;49.794;9.722;2023-09-18T03:21:10;13.40;;;7.17;;
3995;SDS011;2012;49.794;9.722;2023-09-18T03:23:37;13.83;;;6.73;;
3995;SDS011;2012;49.794;9.722;2023-09-18T03:26:04;14.37;;;6.70;;
3995;SDS011;2012;49.794;9.722;2023-09-18T03:28:31;8.60;;;6.70;;
3995;SDS011;2012;49.794;9.722;2023-09-18T03:30:58;8.20;;;6.70;;
3995;SDS011;2012;49.794;9.722;2023-09-18T03:33:26;11.00;;;6.43;;
3995;SDS011;2012;49.794;9.722;2023-09-18T03:35:54;8.40;;;7.60;;
3995;SDS011;2012;49.794;9.722;2023-09-18T03:38:24;7.00;;;6.23;;
3995;SDS011;2012;49.794;9.722;2023-09-18T03:40:52;10.40;;;6.67;;
3995;SDS011;2012;49.794;9.722;2023-09-18T03:43:20;9.90;;;6.80;;
3995;SDS011;2012;49.794;9.722;2023-09-18T03:45:48;8.70;;;7.17;;
3995;SDS011;2012;49.794;9.722;2023-09-18T03:48:15;9.23;;;7.13;;
3995;SDS011;2012;49.794;9.722;2023-09-18T03:50:43;10.90;;;6.43;;
3995;SDS011;2012;49.794;9.722;2023-09-18T03:53:10;8.07;;;6.67;;
3995;SDS011;2012;49.794;9.722;2023-09-18T03:55:38;12.03;;;6.23;;
3995;SDS011;2012;49.794;9.722;2023-09-18T03:58:05;11.83;;;7.10;;
3995;SDS011;2012;49.794;9.722;2023-09-18T04:00:32;9.97;;;7.70;;
3995;SDS011;2012;49.794;9.722;2023-09-18T04:02:59;10.20;;;6.47;;
3995;SDS011;2012;49.794;9.722;2023-09-18T04:05:26;9.83;;;7.80;;
3995;SDS011;2012;49.794;9.722;2023-09-18T04:07:55;15.77;;;6.53;;
3995;SDS011;2012;49.794;9.722;2023-09-18T04:10:22;7.27;;;6.57;;
3995;SDS011;2012;49.794;9.722;2023-09-18T04:12:50;10.30;;;7.37;;
3995;SDS011;2012;49.794;9.722;2023-09-18T04:15:18;8.50;;;7.60;;
3995;SDS011;2012;49.794;9.722;2023-09-18T04:17:47;11.20;;;7.00;;
3995;SDS011;2012;49.794;9.722;2023-09-18T04:20:14;9.50;;;6.60;;
3995;SDS011;2012;49.794;9.722;2023-09-18T04:22:45;10.47;;;7.37;;
3995;SDS011;2012;49.794;9.722;2023-09-18T04:25:17;7.70;;;6.50;;
3995;SDS011;2012;49.794;9.722;2023-09-18T04:27:46;9.13;;;6.80;;
3995;SDS011;2012;49.794;9.722;2023-09-18T04:30:16;8.73;;;6.63;;
3995;SDS011;2012;49.794;9.722;2023-09-18T04:32:46;7.23;;;6.50;;
3995;SDS011;2012;49.794;9.722;2023-09-18T04:35:13;8.80;;;6.50;;
3995;SDS011;2012;49.794;9.722;2023-09-18T04:37:40;7.70;;;6.53;;
3995;SDS011;2012;49.794;9.722;2023-09-18T04:40:08;13.10;;;7.20;;
3995;SDS011;2012;49.794;9.722;2023-09-18T04:42:39;7.87;;;6.70;;
3995;SDS011;2012;49.794;9.722;2023-09-18T04:45:07;7.80;;;7.10;;
3995;SDS011;2012;49.794;9.722;2023-09-18T04:47:34;7.97;;;6.80;;
3995;SDS011;2012;49.794;9.722;2023-09-18T04:50:02;10.23;;;6.67;;
3995;SDS011;2012;49.794;9.722;2023-09-18T04:52:38;8.60;;;7.33;;
3995;SDS011;2012;49.794;9.722;2023-09-18T04:55:07;9.77;;;7.20;;
3995;SDS011;2012;49.794;9.722;2023-09-18T04:57:34;7.40;;;6.70;;
3995;SDS011;2012;49.794;9.722;2023-09-18T05:00:02;10.33;;;6.73;;
3995;SDS011;2012;49.794;9.722;2023-09-18T05:02:42;8.10;;;6.83;;
3995;SDS011;2012;49.794;9.722;2023-09-18T05:05:10;8.60;;;6.67;;
3995;SDS011;2012;49.794;9.722;2023-09-18T05:07:37;7.73;;;6.50;;
3995;SDS011;2012;49.794;9.722;2023-09-18T05:10:05;7.07;;;6.40;;
3995;SDS011;2012;49.794;9.722;2023-09-18T05:12:32;8.03;;;6.67;;
3995;SDS011;2012;49.794;9.722;2023-09-18T05:14:59;15.90;;;7.00;;
3995;SDS011;2012;49.794;9.722;2023-09-18T05:17:46;11.23;;;7.60;;
3995;SDS011;2012;49.794;9.722;2023-09-18T05:20:15;16.97;;;7.40;;
3995;SDS011;2012;49.794;9.722;2023-09-18T05:22:44;23.70;;;8.40;;
3995;SDS011;2012;49.794;9.722;2023-09-18T05:25:12;11.17;;;6.33;;
3995;SDS011;2012;49.794;9.722;2023-09-18T05:27:41;17.20;;;7.03;;
3995;SDS011;2012;49.794;9.722;2023-09-18T05:30:15;7.80;;;7.00;;
3995;SDS011;2012;49.794;9.722;2023-09-18T05:32:47;17.40;;;7.60;;
3995;SDS011;2012;49.794;9.722;2023-09-18T05:35:14;12.60;;;6.73;;
3995;SDS011;2012;49.794;9.722;2023-09-18T05:37:43;8.93;;;7.30;;
3995;SDS011;2012;49.794;9.722;2023-09-18T05:40:11;9.83;;;7.70;;
3995;SDS011;2012;49.794;9.722;2023-09-18T05:42:40;11.27;;;7.27;;
3995;SDS011;2012;49.794;9.722;2023-09-18T05:45:12;12.03;;;8.00;;
3995;SDS011;2012;49.794;9.722;2023-09-18T05:47:41;9.00;;;6.87;;
3995;SDS011;2012;49.794;9.722;2023-09-18T05:50:09;12.10;;;7.27;;
3995;SDS011;2012;49.794;9.722;2023-09-18T05:52:41;12.50;;;6.70;;
3995;SDS011;2012;49.794;9.722;2023-09-18T05:55:09;10.23;;;7.53;;
3995;SDS011;2012;49.794;9.722;2023-09-18T05:57:36;10.50;;;6.97;;
3995;SDS011;2012;49.794;9.722;2023-09-18T06:00:04;8.80;;;7.37;;
3995;SDS011;2012;49.794;9.722;2023-09-18T06:02:37;11.00;;;7.37;;
3995;SDS011;2012;49.794;9.722;2023-09-18T06:05:05;10.70;;;7.27;;
3995;SDS011;2012;49.794;9.722;2023-09-18T06:07:33;10.70;;;7.40;;
3995;SDS011;2012;49.794;9.722;2023-09-18T06:09:59;12.93;;;7.00;;
3995;SDS011;2012;49.794;9.722;2023-09-18T06:12:26;15.27;;;7.70;;
3995;SDS011;2012;49.794;9.722;2023-09-18T06:14:53;11.77;;;7.40;;
3995;SDS011;2012;49.794;9.722;2023-09-18T06:17:20;12.10;;;6.30;;
3995;SDS011;2012;49.794;9.722;2023-09-18T06:19:47;10.87;;;6.50;;
3995;SDS011;2012;49.794;9.722;2023-09-18T06:22:14;9.30;;;6.10;;
3995;SDS011;2012;49.794;9.722;2023-09-18T06:24:41;8.77;;;6.40;;
3995;SDS011;2012;49.794;9.722;2023-09-18T06:27:09;12.67;;;6.37;;
3995;SDS011;2012;49.794;9.722;2023-09-18T06:29:37;9.17;;;6.70;;
3995;SDS011;2012;49.794;9.722;2023-09-18T06:32:05;14.23;;;7.17;;
3995;SDS011;2012;49.794;9.722;2023-09-18T06:34:33;10.23;;;6.17;;
3995;SDS011;2012;49.794;9.722;2023-09-18T06:37:00;11.83;;;7.27;;
3995;SDS011;2012;49.794;9.722;2023-09-18T06:39:27;9.47;;;6.93;;
3995;SDS011;2012;49.794;9.722;2023-09-18T06:41:54;10.63;;;6.90;;
3995;SDS011;2012;49.794;9.722;2023-09-18T06:44:20;13.33;;;7.20;;
3995;SDS011;2012;49.794;9.722;2023-09-18T06:46:50;12.27;;;7.73;;
3995;SDS011;2012;49.794;9.722;2023-09-18T06:49:16;21.83;;;7.33;;
3995;SDS011;2012;49.794;9.722;2023-09-18T06:51:46;8.90;;;6.33;;
3995;SDS011;2012;49.794;9.722;2023-09-18T06:54:13;12.73;;;6.37;;
3995;SDS011;2012;49.794;9.722;2023-09-18T06:56:40;10.57;;;7.23;;
3995;SDS011;2012;49.794;9.722;2023-09-18T06:59:08;7.83;;;6.03;;
3995;SDS011;2012;49.794;9.722;2023-09-18T07:01:35;12.10;;;7.20;;
3995;SDS011;2012;49.794;9.722;2023-09-18T07:04:02;9.20;;;7.00;;
3995;SDS011;2012;49.794;9.722;2023-09-18T07:06:31;8.87;;;6.97;;
3995;SDS011;2012;49.794;9.722;2023-09-18T07:08:58;10.27;;;7.00;;
3995;SDS011;2012;49.794;9.722;2023-09-18T07:11:25;15.37;;;7.37;;
3995;SDS011;2012;49.794;9.722;2023-09-18T07:13:53;7.60;;;5.90;;
3995;SDS011;2012;49.794;9.722;2023-09-18T07:16:20;9.00;;;6.47;;
3995;SDS011;2012;49.794;9.722;2023-09-18T07:18:46;6.00;;;5.07;;
3995;SDS011;2012;49.794;9.722;2023-09-18T07:21:13;10.80;;;6.67;;
3995;SDS011;2012;49.794;9.722;2023-09-18T07:23:40;9.50;;;6.50;;
3995;SDS011;2012;49.794;9.722;2023-09-18T07:26:07;12.10;;;7.20;;
3995;SDS011;2012;49.794;9.722;2023-09-18T07:28:34;9.40;;;5.70;;
3995;SDS011;2012;49.794;9.722;2023-09-18T07:31:05;7.00;;;5.60;;
3995;SDS011;2012;49.794;9.722;2023-09-18T07:33:33;13.17;;;6.27;;
3995;SDS011;2012;49.794;9.722;2023-09-18T07:36:00;8.37;;;6.07;;
3995;SDS011;2012;49.794;9.722;2023-09-18T07:38:27;7.90;;;5.33;;
3995;SDS011;2012;49.794;9.722;2023-09-18T07:40:54;8.10;;;5.57;;
3995;SDS011;2012;49.794;9.722;2023-09-18T07:43:23;8.70;;;5.63;;
3995;SDS011;2012;49.794;9.722;2023-09-18T07:45:52;9.77;;;6.60;;
3995;SDS011;2012;49.794;9.722;2023-09-18T07:48:19;10.87;;;6.13;;
3995;SDS011;2012;49.794;9.722;2023-09-18T07:50:48;11.17;;;5.87;;
3995;SDS011;2012;49.794;9.722;2023-09-18T07:53:18;6.90;;;5.23;;
3995;SDS011;2012;49.794;9.722;2023-09-18T07:55:45;15.27;;;6.43;;
3995;SDS011;2012;49.794;9.722;2023-09-18T07:58:14;8.33;;;5.57;;
3995;SDS011;2012;49.794;9.722;2023-09-18T08:00:41;14.83;;;5.97;;
3995;SDS011;2012;49.794;9.722;2023-09-18T08:03:08;9.07;;;4.87;;
3995;SDS011;2012;49.794;9.722;2023-09-18T08:05:35;9.20;;;5.67;;
3995;SDS011;2012;49.794;9.722;2023-09-18T08:08:02;7.37;;;5.13;;
3995;SDS011;2012;49.794;9.722;2023-09-18T08:10:32;7.17;;;4.60;;
3995;SDS011;2012;49.794;9.722;2023-09-18T08:13:02;11.10;;;4.83;;
3995;SDS011;2012;49.794;9.722;2023-09-18T08:15:29;12.30;;;5.70;;
3995;SDS011;2012;49.794;9.722;2023-09-18T08:17:56;6.97;;;4.33;;
3995;SDS011;2012;49.794;9.722;2023-09-18T08:20:23;8.03;;;4.67;;
3995;SDS011;2012;49.794;9.722;2023-09-18T08:22:52;7.37;;;4.30;;
3995;SDS011;2012;49.794;9.722;2023-09-18T08:25:22;13.60;;;4.57;;
3995;SDS011;2012;49.794;9.722;2023-09-18T08:27:49;8.87;;;3.67;;
3995;SDS011;2012;49.794;9.722;2023-09-18T08:30:16;7.50;;;3.90;;
3995;SDS011;2012;49.794;9.722;2023-09-18T08:32:47;10.47;;;3.03;;
3995;SDS011;2012;49.794;9.722;2023-09-18T08:35:13;6.57;;;3.53;;
3995;SDS011;2012;49.794;9.722;2023-09-18T08:37:41;13.87;;;3.37;;
3995;SDS011;2012;49.794;9.722;2023-09-18T08:40:12;6.20;;;2.83;;
3995;SDS011;2012;49.794;9.722;2023-09-18T08:42:47;8.97;;;3.70;;
3995;SDS011;2012;49.794;9.722;2023-09-18T08:45:22;8.90;;;3.00;;
3995;SDS011;2012;49.794;9.722;2023-09-18T08:47:54;14.20;;;3.90;;
3995;SDS011;2012;49.794;9.722;2023-09-18T08:50:22;12.47;;;3.43;;
3995;SDS011;2012;49.794;9.722;2023-09-18T08:52:51;12.70;;;3.03;;
3995;SDS011;2012;49.794;9.722;2023-09-18T08:55:19;10.03;;;3.03;;
3995;SDS011;2012;49.794;9.722;2023-09-18T08:57:46;11.10;;;2.83;;
3995;SDS011;2012;49.794;9.722;2023-09-18T09:00:14;6.17;;;2.53;;
3995;SDS011;2012;49.794;9.722;2023-09-18T09:02:44;4.70;;;2.60;;
3995;SDS011;2012;49.794;9.722;2023-09-18T09:05:12;8.37;;;2.77;;
3995;SDS011;2012;49.794;9.722;2023-09-18T09:07:39;6.00;;;3.07;;
3995;SDS011;2012;49.794;9.722;2023-09-18T09:10:06;6.37;;;2.40;;
3995;SDS011;2012;49.794;9.722;2023-09-18T09:18:14;5.53;;;2.40;;
3995;SDS011;2012;49.794;9.722;2023-09-18T09:20:42;8.20;;;1.90;;
3995;SDS011;2012;49.794;9.722;2023-09-18T09:23:47;11.20;;;2.70;;
3995;SDS011;2012;49.794;9.722;2023-09-18T09:26:21;6.07;;;2.10;;
3995;SDS011;2012;49.794;9.722;2023-09-18T09:28:49;6.87;;;2.03;;
3995;SDS011;2012;49.794;9.722;2023-09-18T09:31:27;4.20;;;2.13;;
3995;SDS011;2012;49.794;9.722;2023-09-18T09:33:55;6.10;;;1.70;;
3995;SDS011;2012;49.794;9.722;2023-09-18T09:36:23;2.60;;;1.80;;
3995;SDS011;2012;49.794;9.722;2023-09-18T09:38:57;4.83;;;2.10;;
3995;SDS011;2012;49.794;9.722;2023-09-18T09:41:27;5.37;;;2.00;;
3995;SDS011;2012;49.794;9.722;2023-09-18T09:43:55;4.43;;;1.87;;
3995;SDS011;2012;49.794;9.722;2023-09-18T09:46:23;7.00;;;1.90;;
3995;SDS011;2012;49.794;9.722;2023-09-18T09:49:01;4.67;;;1.70;;
3995;SDS011;2012;49.794;9.722;2023-09-18T09:51:30;9.97;;;2.97;;
3995;SDS011;2012;49.794;9.722;2023-09-18T09:53:58;6.40;;;2.10;;
3995;SDS011;2012;49.794;9.722;2023-09-18T09:56:45;4.57;;;1.57;;
3995;SDS011;2012;49.794;9.722;2023-09-18T09:59:15;8.63;;;2.10;;
3995;SDS011;2012;49.794;9.722;2023-09-18T10:01:42;3.57;;;1.50;;
3995;SDS011;2012;49.794;9.722;2023-09-18T10:04:13;5.23;;;1.40;;
3995;SDS011;2012;49.794;9.722;2023-09-18T10:06:44;6.10;;;1.80;;
3995;SDS011;2012;49.794;9.722;2023-09-18T10:09:17;6.00;;;1.60;;
3995;SDS011;2012;49.794;9.722;2023-09-18T10:11:48;8.13;;;1.67;;
3995;SDS011;2012;49.794;9.722;2023-09-18T10:14:19;6.30;;;2.20;;
3995;SDS011;2012;49.794;9.722;2023-09-18T10:16:50;3.10;;;1.60;;
3995;SDS011;2012;49.794;9.722;2023-09-18T10:19:25;7.63;;;2.13;;
3995;SDS011;2012;49.794;9.722;2023-09-18T10:24:50;6.93;;;1.93;;
3995;SDS011;2012;49.794;9.722;2023-09-18T10:27:19;6.83;;;2.37;;
3995;SDS011;2012;49.794;9.722;2023-09-18T10:29:49;5.80;;;1.80;;
3995;SDS011;2012;49.794;9.722;2023-09-18T10:32:18;3.20;;;2.07;;
3995;SDS011;2012;49.794;9.722;2023-09-18T10:34:47;8.97;;;2.27;;
3995;SDS011;2012;49.794;9.722;2023-09-18T10:37:15;2.63;;;1.37;;
3995;SDS011;2012;49.794;9.722;2023-09-18T10:39:42;4.03;;;1.60;;
3995;SDS011;2012;49.794;9.722;2023-09-18T10:42:11;3.07;;;1.47;;
3995;SDS011;2012;49.794;9.722;2023-09-18T10:44:40;5.80;;;1.87;;
3995;SDS011;2012;49.794;9.722;2023-09-18T10:47:08;8.43;;;1.97;;
3995;SDS011;2012;49.794;9.722;2023-09-18T10:49:36;7.33;;;1.90;;
3995;SDS011;2012;49.794;9.722;2023-09-18T10:52:03;4.73;;;1.80;;
3995;SDS011;2012;49.794;9.722;2023-09-18T10:54:31;3.40;;;1.40;;
3995;SDS011;2012;49.794;9.722;2023-09-18T10:56:59;5.80;;;1.60;;
3995;SDS011;2012;49.794;9.722;2023-09-18T10:59:28;6.67;;;1.37;;
3995;SDS011;2012;49.794;9.722;2023-09-18T11:01:56;4.30;;;1.70;;
3995;SDS011;2012;49.794;9.722;2023-09-18T11:04:23;12.93;;;1.87;;
3995;SDS011;2012;49.794;9.722;2023-09-18T11:11:53;7.70;;;1.77;;
3995;SDS011;2012;49.794;9.722;2023-09-18T11:23:09;5.40;;;1.67;;
3995;SDS011;2012;49.794;9.722;2023-09-18T11:25:40;5.10;;;1.63;;
3995;SDS011;2012;49.794;9.722;2023-09-18T11:28:08;6.97;;;1.60;;
3995;SDS011;2012;49.794;9.722;2023-09-18T11:30:54;6.80;;;1.90;;
3995;SDS011;2012;49.794;9.722;2023-09-18T11:33:37;8.57;;;1.60;;
3995;SDS011;2012;49.794;9.722;2023-09-18T11:38:54;6.80;;;2.10;;
3995;SDS011;2012;49.794;9.722;2023-09-18T11:41:25;9.60;;;1.80;;
3995;SDS011;2012;49.794;9.722;2023-09-18T11:46:45;4.67;;;1.67;;
3995;SDS011;2012;49.794;9.722;2023-09-18T11:49:19;15.13;;;1.90;;
3995;SDS011;2012;49.794;9.722;2023-09-18T11:51:53;7.63;;;2.10;;
3995;SDS011;2012;49.794;9.722;2023-09-18T11:54:20;10.73;;;1.90;;
3995;SDS011;2012;49.794;9.722;2023-09-18T11:56:47;4.67;;;2.03;;
3995;SDS011;2012;49.794;9.722;2023-09-18T11:59:14;4.60;;;1.90;;
3995;SDS011;2012;49.794;9.722;2023-09-18T12:01:43;4.57;;;1.63;;
3995;SDS011;2012;49.794;9.722;2023-09-18T12:04:18;8.80;;;1.70;;
3995;SDS011;2012;49.794;9.722;2023-09-18T12:06:55;3.57;;;1.40;;
3995;SDS011;2012;49.794;9.722;2023-09-18T12:09:22;7.13;;;1.50;;
3995;SDS011;2012;49.794;9.722;2023-09-18T12:11:51;6.87;;;1.60;;
3995;SDS011;2012;49.794;9.722;2023-09-18T12:14:20;4.27;;;1.77;;
3995;SDS011;2012;49.794;9.722;2023-09-18T12:16:47;6.47;;;2.30;;
3995;SDS011;2012;49.794;9.722;2023-09-18T12:19:17;4.00;;;1.53;;
3995;SDS011;2012;49.794;9.722;2023-09-18T12:21:47;7.13;;;1.70;;
3995;SDS011;2012;49.794;9.722;2023-09-18T12:24:21;5.40;;;2.17;;
3995;SDS011;2012;49.794;9.722;2023-09-18T12:26:49;4.50;;;2.00;;
3995;SDS011;2012;49.794;9.722;2023-09-18T12:29:18;8.20;;;1.67;;
3995;SDS011;2012;49.794;9.722;2023-09-18T12:31:46;3.90;;;2.13;;
3995;SDS011;2012;49.794;9.722;2023-09-18T12:34:20;17.33;;;2.90;;
3995;SDS011;2012;49.794;9.722;2023-09-18T12:36:48;7.00;;;1.90;;
3995;SDS011;2012;49.794;9.722;2023-09-18T12:39:17;3.00;;;1.83;;
3995;SDS011;2012;49.794;9.722;2023-09-18T12:41:47;5.37;;;1.63;;
3995;SDS011;2012;49.794;9.722;2023-09-18T12:44:14;6.53;;;2.03;;
3995;SDS011;2012;49.794;9.722;2023-09-18T12:46:43;10.13;;;2.10;;
3995;SDS011;2012;49.794;9.722;2023-09-18T12:49:17;6.00;;;2.07;;
3995;SDS011;2012;49.794;9.722;2023-09-18T12:52:00;3.20;;;1.77;;
3995;SDS011;2012;49.794;9.722;2023-09-18T12:54:44;4.73;;;1.80;;
3995;SDS011;2012;49.794;9.722;2023-09-18T12:57:20;4.73;;;2.33;;
3995;SDS011;2012;49.794;9.722;2023-09-18T12:59:47;8.00;;;2.60;;
3995;SDS011;2012;49.794;9.722;2023-09-18T13:02:18;4.63;;;2.00;;
3995;SDS011;2012;49.794;9.722;2023-09-18T13:04:54;5.40;;;1.90;;
3995;SDS011;2012;49.794;9.722;2023-09-18T13:07:22;8.43;;;2.40;;
3995;SDS011;2012;49.794;9.722;2023-09-18T13:09:59;4.97;;;1.97;;
3995;SDS011;2012;49.794;9.722;2023-09-18T13:12:40;7.40;;;1.60;;
3995;SDS011;2012;49.794;9.722;2023-09-18T13:15:10;7.60;;;1.63;;
3995;SDS011;2012;49.794;9.722;2023-09-18T13:17:42;7.27;;;1.83;;
3995;SDS011;2012;49.794;9.722;2023-09-18T13:20:14;4.60;;;1.80;;
3995;SDS011;2012;49.794;9.722;2023-09-18T13:22:47;5.60;;;1.87;;
3995;SDS011;2012;49.794;9.722;2023-09-18T13:28:01;5.13;;;1.63;;
3995;SDS011;2012;49.794;9.722;2023-09-18T13:30:30;3.33;;;1.30;;
3995;SDS011;2012;49.794;9.722;2023-09-18T13:33:01;2.07;;;1.17;;
3995;SDS011;2012;49.794;9.722;2023-09-18T13:35:33;4.73;;;1.43;;
3995;SDS011;2012;49.794;9.722;2023-09-18T13:38:04;4.07;;;1.40;;
3995;SDS011;2012;49.794;9.722;2023-09-18T13:40:32;2.80;;;1.30;;
3995;SDS011;2012;49.794;9.722;2023-09-18T13:42:59;9.43;;;1.40;;
3995;SDS011;2012;49.794;9.722;2023-09-18T13:45:26;4.90;;;1.80;;
3995;SDS011;2012;49.794;9.722;2023-09-18T13:47:54;10.90;;;1.87;;
3995;SDS011;2012;49.794;9.722;2023-09-18T13:50:22;4.00;;;1.23;;
3995;SDS011;2012;49.794;9.722;2023-09-18T13:52:49;5.33;;;1.23;;
3995;SDS011;2012;49.794;9.722;2023-09-18T13:55:16;9.50;;;1.47;;
3995;SDS011;2012;49.794;9.722;2023-09-18T13:57:43;2.93;;;1.23;;
3995;SDS011;2012;49.794;9.722;2023-09-18T14:00:10;1.67;;;1.00;;
3995;SDS011;2012;49.794;9.722;2023-09-18T14:02:38;3.03;;;1.43;;
3995;SDS011;2012;49.794;9.722;2023-09-18T14:05:07;3.70;;;1.20;;
3995;SDS011;2012;49.794;9.722;2023-09-18T14:07:35;5.20;;;1.37;;
3995;SDS011;2012;49.794;9.722;2023-09-18T14:10:08;3.00;;;1.23;;
3995;SDS011;2012;49.794;9.722;2023-09-18T14:12:37;2.70;;;1.50;;
3995;SDS011;2012;49.794;9.722;2023-09-18T14:15:05;10.30;;;2.00;;
3995;SDS011;2012;49.794;9.722;2023-09-18T14:17:36;2.63;;;1.07;;
3995;SDS011;2012;49.794;9.722;2023-09-18T14:20:04;8.43;;;1.40;;
3995;SDS011;2012;49.794;9.722;2023-09-18T14:22:33;2.93;;;0.97;;
3995;SDS011;2012;49.794;9.722;2023-09-18T14:25:02;2.03;;;1.43;;
3995;SDS011;2012;49.794;9.722;2023-09-18T14:27:31;7.47;;;1.30;;
3995;SDS011;2012;49.794;9.722;2023-09-18T14:29:59;6.50;;;1.20;;
3995;SDS011;2012;49.794;9.722;2023-09-18T14:32:27;4.50;;;1.30;;
3995;SDS011;2012;49.794;9.722;2023-09-18T14:34:54;2.80;;;1.10;;
3995;SDS011;2012;49.794;9.722;2023-09-18T14:37:21;4.33;;;1.27;;
3995;SDS011;2012;49.794;9.722;2023-09-18T14:39:48;4.30;;;1.27;;
3995;SDS011;2012;49.794;9.722;2023-09-18T14:42:15;2.17;;;1.20;;
3995;SDS011;2012;49.794;9.722;2023-09-18T14:44:42;4.47;;;1.33;;
3995;SDS011;2012;49.794;9.722;2023-09-18T14:47:11;2.97;;;1.37;;
3995;SDS011;2012;49.794;9.722;2023-09-18T14:49:39;3.03;;;1.50;;
3995;SDS011;2012;49.794;9.722;2023-09-18T14:52:05;1.77;;;1.17;;
3995;SDS011;2012;49.794;9.722;2023-09-18T14:54:32;4.83;;;1.97;;
3995;SDS011;2012;49.794;9.722;2023-09-18T14:57:00;3.33;;;1.17;;
3995;SDS011;2012;49.794;9.722;2023-09-18T14:59:28;6.57;;;1.77;;
3995;SDS011;2012;49.794;9.722;2023-09-18T15:02:07;9.70;;;1.10;;
3995;SDS011;2012;49.794;9.722;2023-09-18T15:04:34;3.03;;;1.23;;
3995;SDS011;2012;49.794;9.722;2023-09-18T15:07:02;6.67;;;1.70;;
3995;SDS011;2012;49.794;9.722;2023-09-18T15:09:29;5.67;;;2.67;;
3995;SDS011;2012;49.794;9.722;2023-09-18T15:11:56;4.57;;;2.50;;
3995;SDS011;2012;49.794;9.722;2023-09-18T15:14:23;10.93;;;6.17;;
3995;SDS011;2012;49.794;9.722;2023-09-18T15:16:50;8.60;;;3.90;;
3995;SDS011;2012;49.794;9.722;2023-09-18T15:19:18;3.43;;;2.47;;
3995;SDS011;2012;49.794;9.722;2023-09-18T15:21:46;2.27;;;1.27;;
3995;SDS011;2012;49.794;9.722;2023-09-18T15:24:13;5.60;;;2.13;;
3995;SDS011;2012;49.794;9.722;2023-09-18T15:26:40;5.20;;;1.77;;
3995;SDS011;2012;49.794;9.722;2023-09-18T15:29:08;3.87;;;1.17;;
3995;SDS011;2012;49.794;9.722;2023-09-18T15:31:35;3.93;;;2.33;;
3995;SDS011;2012;49.794;9.722;2023-09-18T15:34:02;6.53;;;3.10;;
3995;SDS011;2012;49.794;9.722;2023-09-18T15:36:30;3.40;;;1.43;;
3995;SDS011;2012;49.794;9.722;2023-09-18T15:38:58;1.57;;;1.10;;
3995;SDS011;2012;49.794;9.722;2023-09-18T15:41:26;2.03;;;1.40;;
3995;SDS011;2012;49.794;9.722;2023-09-18T15:43:55;5.20;;;1.70;;
3995;SDS011;2012;49.794;9.722;2023-09-18T15:46:22;5.57;;;1.63;;
3995;SDS011;2012;49.794;9.722;2023-09-18T15:48:49;4.53;;;1.57;;
3995;SDS011;2012;49.794;9.722;2023-09-18T15:51:17;2.80;;;1.07;;
3995;SDS011;2012;49.794;9.722;2023-09-18T15:53:45;2.40;;;1.50;;
3995;SDS011;2012;49.794;9.722;2023-09-18T15:56:12;2.70;;;1.00;;